Time,TemperatureF,DewpointF,PressureIn,WindDirection,WindDirectionDegrees,WindSpeedMPH,WindSpeedGustMPH,Humidity,HourlyPrecipIn,Conditions,Clouds,dailyrainin,SoftwareType,DateUTC
2013-05-15 00:02:00,65.0,41.0,29.66,SSE,158,2.0,7.0,41,0.00,,,0.00,,2013-05-15 06:02:00,
2013-05-15 00:11:00,65.0,41.0,29.66,SSE,158,2.0,7.0,41,0.00,,,0.00,,2013-05-15 06:11:00,
2013-05-15 00:21:00,65.0,41.0,29.65,SSE,168,2.0,7.0,41,0.00,,,0.00,,2013-05-15 06:21:00,
2013-05-15 00:32:00,65.0,41.0,29.65,South,190,1.0,6.0,41,0.00,,,0.00,,2013-05-15 06:32:00,
2013-05-15 00:42:00,65.0,41.0,29.65,South,190,1.0,6.0,41,0.00,,,0.00,,2013-05-15 06:42:00,
2013-05-15 00:52:00,64.0,40.0,29.65,South,169,0.0,7.0,41,0.00,,,0.00,,2013-05-15 06:52:00,
2013-05-15 01:01:00,64.0,39.0,29.65,South,175,0.0,6.0,40,0.00,,,0.00,,2013-05-15 07:01:00,
2013-05-15 01:11:00,64.0,39.0,29.65,South,175,0.0,6.0,40,0.00,,,0.00,,2013-05-15 07:11:00,
2013-05-15 01:21:00,64.0,39.0,29.65,South,190,0.0,7.0,40,0.00,,,0.00,,2013-05-15 07:21:00,
2013-05-15 01:32:00,64.0,39.0,29.64,South,173,1.0,8.0,40,0.00,,,0.00,,2013-05-15 07:32:00,
2013-05-15 01:41:00,64.0,39.0,29.64,South,173,1.0,8.0,40,0.00,,,0.00,,2013-05-15 07:41:00,
2013-05-15 01:52:00,64.0,40.0,29.64,SW,221,3.0,10.0,42,0.00,,,0.00,,2013-05-15 07:52:00,
2013-05-15 02:02:00,63.0,40.0,29.63,South,189,1.0,9.0,43,0.00,,,0.00,,2013-05-15 08:02:00,
2013-05-15 02:12:00,63.0,40.0,29.63,South,189,1.0,9.0,43,0.00,,,0.00,,2013-05-15 08:12:00,
2013-05-15 02:21:00,63.0,41.0,29.63,SSE,165,1.0,6.0,44,0.00,,,0.00,,2013-05-15 08:21:00,
2013-05-15 02:32:00,62.0,40.0,29.63,South,179,1.0,7.0,44,0.00,,,0.00,,2013-05-15 08:32:00,
2013-05-15 02:42:00,62.0,40.0,29.63,South,179,1.0,7.0,44,0.00,,,0.00,,2013-05-15 08:42:00,
2013-05-15 02:53:00,62.0,40.0,29.63,South,179,2.0,8.0,45,0.00,,,0.00,,2013-05-15 08:53:00,
2013-05-15 03:01:00,61.0,40.0,29.62,South,185,1.0,10.0,46,0.00,,,0.00,,2013-05-15 09:01:00,
2013-05-15 03:11:00,61.0,40.0,29.62,South,185,1.0,10.0,46,0.00,,,0.00,,2013-05-15 09:11:00,
2013-05-15 03:21:00,61.0,40.0,29.62,South,190,2.0,9.0,45,0.00,,,0.00,,2013-05-15 09:21:00,
2013-05-15 03:33:00,62.0,40.0,29.62,SW,219,2.0,5.0,45,0.00,,,0.00,,2013-05-15 09:33:00,
2013-05-15 03:42:00,62.0,40.0,29.62,SW,219,2.0,5.0,45,0.00,,,0.00,,2013-05-15 09:42:00,
2013-05-15 03:53:00,62.0,40.0,29.62,SSW,194,1.0,6.0,44,0.00,,,0.00,,2013-05-15 09:53:00,
2013-05-15 04:02:00,62.0,40.0,29.62,SSW,208,0.0,5.0,45,0.00,,,0.00,,2013-05-15 10:02:00,
2013-05-15 04:12:00,62.0,40.0,29.62,SSW,208,0.0,5.0,45,0.00,,,0.00,,2013-05-15 10:12:00,
2013-05-15 04:22:00,61.0,40.0,29.62,SW,220,0.0,3.0,46,0.00,,,0.00,,2013-05-15 10:22:00,
2013-05-15 04:32:00,60.0,40.0,29.62,South,190,1.0,3.0,47,0.00,,,0.00,,2013-05-15 10:32:00,
2013-05-15 04:42:00,60.0,40.0,29.62,South,190,1.0,3.0,47,0.00,,,0.00,,2013-05-15 10:42:00,
2013-05-15 04:52:00,60.0,40.0,29.62,South,179,0.0,4.0,47,0.00,,,0.00,,2013-05-15 10:52:00,
2013-05-15 05:17:00,60.0,39.0,29.62,South,188,1.0,5.0,46,0.00,,,0.00,,2013-05-15 11:17:00,
2013-05-15 05:35:00,60.0,39.0,29.62,South,176,1.0,3.0,46,0.00,,,0.00,,2013-05-15 11:35:00,
2013-05-15 05:47:00,60.0,39.0,29.62,South,176,1.0,3.0,46,0.00,,,0.00,,2013-05-15 11:47:00,
2013-05-15 05:55:00,60.0,40.0,29.62,South,171,2.0,5.0,47,0.00,,,0.00,,2013-05-15 11:55:00,
2013-05-15 06:26:00,59.0,39.0,29.62,SSW,195,0.0,4.0,48,0.00,,,0.00,,2013-05-15 12:26:00,
2013-05-15 06:35:00,59.0,39.0,29.63,SSW,195,0.0,0.0,47,0.00,,,0.00,,2013-05-15 12:35:00,
2013-05-15 06:47:00,59.0,39.0,29.63,SSW,195,0.0,0.0,47,0.00,,,0.00,,2013-05-15 12:47:00,
2013-05-15 06:54:00,60.0,39.0,29.64,SW,221,0.0,1.0,46,0.00,,,0.00,,2013-05-15 12:54:00,
2013-05-15 07:07:00,60.0,39.0,29.65,South,190,0.0,0.0,46,0.00,,,0.00,,2013-05-15 13:07:00,
2013-05-15 07:24:00,61.0,40.0,29.65,SSW,198,0.0,0.0,46,0.00,,,0.00,,2013-05-15 13:24:00,
2013-05-15 07:35:00,62.0,41.0,29.66,WSW,242,0.0,1.0,46,0.00,,,0.00,,2013-05-15 13:35:00,
2013-05-15 07:46:00,62.0,41.0,29.66,WSW,242,0.0,1.0,46,0.00,,,0.00,,2013-05-15 13:46:00,
2013-05-15 07:55:00,63.0,41.0,29.67,WNW,288,0.0,3.0,44,0.00,,,0.00,,2013-05-15 13:55:00,
2013-05-15 08:05:00,64.0,40.0,29.66,West,280,0.0,3.0,42,0.00,,,0.00,,2013-05-15 14:05:00,
2013-05-15 08:13:00,64.0,40.0,29.66,West,280,0.0,3.0,42,0.00,,,0.00,,2013-05-15 14:13:00,
2013-05-15 08:25:00,66.0,40.0,29.67,West,275,1.0,6.0,39,0.00,,,0.00,,2013-05-15 14:25:00,
2013-05-15 08:36:00,66.0,40.0,29.67,West,275,1.0,6.0,39,0.00,,,0.00,,2013-05-15 14:36:00,
2013-05-15 08:52:00,66.0,40.0,29.67,West,275,1.0,6.0,39,0.00,,,0.00,,2013-05-15 14:52:00,
2013-05-15 09:08:00,68.0,41.0,29.67,NNW,345,3.0,7.0,37,0.00,,,0.00,,2013-05-15 15:08:00,
2013-05-15 09:16:00,68.0,41.0,29.67,NNW,345,3.0,7.0,37,0.00,,,0.00,,2013-05-15 15:16:00,
2013-05-15 09:27:00,69.0,42.0,29.67,NNW,342,2.0,6.0,37,0.00,,,0.00,,2013-05-15 15:27:00,
2013-05-15 09:36:00,69.0,42.0,29.67,NNW,342,2.0,6.0,37,0.00,,,0.00,,2013-05-15 15:36:00,
2013-05-15 09:47:00,69.0,42.0,29.67,NNW,342,2.0,6.0,37,0.00,,,0.00,,2013-05-15 15:47:00,
2013-05-15 09:56:00,70.0,42.0,29.67,North,5,1.0,8.0,36,0.00,,,0.00,,2013-05-15 15:56:00,
2013-05-15 10:10:00,70.0,40.0,29.67,NW,304,0.0,6.0,34,0.00,,,0.00,,2013-05-15 16:10:00,
2013-05-15 10:21:00,70.0,40.0,29.67,NW,304,0.0,6.0,34,0.00,,,0.00,,2013-05-15 16:21:00,
2013-05-15 10:27:00,72.0,41.0,29.67,North,11,4.0,8.0,32,0.00,,,0.00,,2013-05-15 16:27:00,
2013-05-15 10:36:00,73.0,41.0,29.67,NNW,337,3.0,10.0,31,0.00,,,0.00,,2013-05-15 16:36:00,
2013-05-15 10:47:00,73.0,41.0,29.67,NNW,337,3.0,10.0,31,0.00,,,0.00,,2013-05-15 16:47:00,
2013-05-15 10:53:00,74.0,40.0,29.67,NNW,332,2.0,10.0,29,0.00,,,0.00,,2013-05-15 16:53:00,
2013-05-15 11:08:00,75.0,41.0,29.67,NNE,22,2.0,9.0,30,0.00,,,0.00,,2013-05-15 17:08:00,
2013-05-15 11:18:00,75.0,41.0,29.67,NNE,22,2.0,9.0,30,0.00,,,0.00,,2013-05-15 17:18:00,
2013-05-15 11:36:00,75.0,38.0,29.67,North,10,0.0,12.0,26,0.00,,,0.00,,2013-05-15 17:36:00,
2013-05-15 11:45:00,75.0,38.0,29.67,North,10,0.0,12.0,26,0.00,,,0.00,,2013-05-15 17:45:00,
2013-05-15 11:56:00,77.0,39.0,29.66,NNE,25,3.0,7.0,26,0.00,,,0.00,,2013-05-15 17:56:00,
2013-05-15 12:05:00,77.0,38.0,29.65,NNE,23,3.0,7.0,25,0.00,,,0.00,,2013-05-15 18:05:00,
2013-05-15 12:26:00,78.0,40.0,29.65,North,5,0.0,4.0,26,0.00,,,0.00,,2013-05-15 18:26:00,
2013-05-15 12:36:00,80.0,40.0,29.64,NNE,16,0.0,5.0,24,0.00,,,0.00,,2013-05-15 18:36:00,
2013-05-15 12:46:00,80.0,40.0,29.64,NNE,16,0.0,5.0,24,0.00,,,0.00,,2013-05-15 18:46:00,
2013-05-15 12:54:00,80.0,38.0,29.63,North,9,4.0,7.0,22,0.00,,,0.00,,2013-05-15 18:54:00,
2013-05-15 13:08:00,80.0,37.0,29.63,North,355,2.0,6.0,21,0.00,,,0.00,,2013-05-15 19:08:00,
2013-05-15 13:15:00,80.0,37.0,29.63,North,355,2.0,6.0,21,0.00,,,0.00,,2013-05-15 19:15:00,
2013-05-15 13:37:00,81.0,39.0,29.62,ESE,117,0.0,5.0,22,0.00,,,0.00,,2013-05-15 19:37:00,
2013-05-15 13:45:00,81.0,39.0,29.62,ESE,117,0.0,5.0,22,0.00,,,0.00,,2013-05-15 19:45:00,
2013-05-15 13:54:00,81.0,40.0,29.61,West,261,3.0,8.0,23,0.00,,,0.00,,2013-05-15 19:54:00,
2013-05-15 14:08:00,80.0,39.0,29.60,East,83,3.0,7.0,23,0.00,,,0.00,,2013-05-15 20:08:00,
2013-05-15 14:17:00,80.0,39.0,29.60,East,83,3.0,7.0,23,0.00,,,0.00,,2013-05-15 20:17:00,
2013-05-15 14:27:00,82.0,39.0,29.60,NW,321,2.0,10.0,22,0.00,,,0.00,,2013-05-15 20:27:00,
2013-05-15 14:37:00,82.0,41.0,29.60,WSW,256,1.0,11.0,23,0.00,,,0.00,,2013-05-15 20:37:00,
2013-05-15 14:46:00,82.0,41.0,29.60,WSW,256,1.0,11.0,23,0.00,,,0.00,,2013-05-15 20:46:00,
2013-05-15 14:53:00,81.0,39.0,29.59,West,279,2.0,7.0,22,0.00,,,0.00,,2013-05-15 20:53:00,
2013-05-15 15:19:00,81.0,37.0,29.59,North,355,1.0,8.0,21,0.00,,,0.00,,2013-05-15 21:19:00,
2013-05-15 15:40:00,80.0,38.0,29.58,NW,320,2.0,8.0,22,0.00,,,0.00,,2013-05-15 21:40:00,
2013-05-15 15:49:00,80.0,38.0,29.58,NW,320,2.0,8.0,22,0.00,,,0.00,,2013-05-15 21:49:00,
2013-05-15 15:56:00,79.0,43.0,29.58,North,360,3.0,9.0,28,0.00,,,0.00,,2013-05-15 21:56:00,
2013-05-15 16:09:00,78.0,39.0,29.58,SE,132,5.0,10.0,25,0.00,,,0.00,,2013-05-15 22:09:00,
2013-05-15 16:17:00,78.0,39.0,29.58,SE,132,5.0,10.0,25,0.00,,,0.00,,2013-05-15 22:17:00,
2013-05-15 16:28:00,75.0,44.0,29.60,ESE,119,4.0,10.0,33,0.00,,,0.00,,2013-05-15 22:28:00,
2013-05-15 16:39:00,67.0,48.0,29.61,SSE,158,5.0,15.0,51,0.04,,,0.04,,2013-05-15 22:39:00,
2013-05-15 16:54:00,62.0,49.0,29.63,SSW,200,2.0,14.0,62,0.10,,,0.10,,2013-05-15 22:54:00,
2013-05-15 17:07:00,60.0,50.0,29.65,WSW,244,0.0,5.0,70,0.14,,,0.14,,2013-05-15 23:07:00,
2013-05-15 17:27:00,60.0,52.0,29.67,West,265,1.0,4.0,75,0.14,,,0.15,,2013-05-15 23:27:00,
2013-05-15 17:38:00,62.0,50.0,29.67,West,274,3.0,8.0,65,0.11,,,0.15,,2013-05-15 23:38:00,
2013-05-15 17:48:00,62.0,50.0,29.67,West,274,3.0,8.0,65,0.11,,,0.15,,2013-05-15 23:48:00,
2013-05-15 17:54:00,61.0,48.0,29.66,WSW,240,6.0,16.0,62,0.06,,,0.16,,2013-05-15 23:54:00,
2013-05-15 18:05:00,61.0,46.0,29.66,West,263,7.0,16.0,58,0.02,,,0.16,,2013-05-16 00:05:00,
2013-05-15 18:16:00,61.0,46.0,29.66,West,263,7.0,16.0,58,0.02,,,0.16,,2013-05-16 00:16:00,
2013-05-15 18:25:00,61.0,48.0,29.66,NW,317,4.0,17.0,62,0.01,,,0.16,,2013-05-16 00:25:00,
2013-05-15 18:35:00,60.0,49.0,29.65,NW,324,5.0,12.0,66,0.01,,,0.16,,2013-05-16 00:35:00,
2013-05-15 18:48:00,60.0,49.0,29.65,NNW,346,7.0,16.0,67,0.00,,,0.16,,2013-05-16 00:48:00,
2013-05-15 18:54:00,60.0,49.0,29.65,NNW,346,7.0,16.0,67,0.00,,,0.16,,2013-05-16 00:54:00,
2013-05-15 19:06:00,61.0,48.0,29.65,NNE,16,1.0,11.0,62,0.00,,,0.16,,2013-05-16 01:06:00,
2013-05-15 19:16:00,61.0,48.0,29.65,NNE,16,1.0,11.0,62,0.00,,,0.16,,2013-05-16 01:16:00,
2013-05-15 19:28:00,62.0,47.0,29.66,NNW,335,2.0,5.0,58,0.00,,,0.16,,2013-05-16 01:28:00,
2013-05-15 19:36:00,62.0,48.0,29.67,NNE,21,0.0,6.0,61,0.00,,,0.16,,2013-05-16 01:36:00,
2013-05-15 19:48:00,62.0,48.0,29.67,NNE,21,0.0,6.0,61,0.00,,,0.16,,2013-05-16 01:48:00,
2013-05-15 19:56:00,62.0,47.0,29.68,SE,126,2.0,6.0,59,0.00,,,0.16,,2013-05-16 01:56:00,
2013-05-15 20:07:00,61.0,48.0,29.68,SE,140,0.0,3.0,62,0.00,,,0.16,,2013-05-16 02:07:00,
2013-05-15 20:16:00,61.0,48.0,29.68,SE,140,0.0,3.0,62,0.00,,,0.16,,2013-05-16 02:16:00,
2013-05-15 20:26:00,61.0,49.0,29.69,SE,141,0.0,0.0,65,0.00,,,0.16,,2013-05-16 02:26:00,
2013-05-15 20:37:00,61.0,50.0,29.69,SE,141,0.0,0.0,68,0.00,,,0.16,,2013-05-16 02:37:00,
2013-05-15 20:46:00,61.0,50.0,29.69,SE,141,0.0,0.0,68,0.00,,,0.16,,2013-05-16 02:46:00,
2013-05-15 20:53:00,61.0,50.0,29.69,SE,141,0.0,0.0,68,0.00,,,0.16,,2013-05-16 02:53:00,
2013-05-15 21:07:00,60.0,49.0,29.70,ESE,113,0.0,0.0,68,0.00,,,0.16,,2013-05-16 03:07:00,
2013-05-15 21:16:00,60.0,49.0,29.70,ESE,113,0.0,0.0,68,0.00,,,0.16,,2013-05-16 03:16:00,
2013-05-15 21:25:00,60.0,49.0,29.70,ESE,113,0.0,0.0,68,0.00,,,0.16,,2013-05-16 03:25:00,
2013-05-15 21:36:00,60.0,50.0,29.70,ESE,114,0.0,3.0,70,0.00,,,0.16,,2013-05-16 03:36:00,
2013-05-15 21:45:00,60.0,50.0,29.70,ESE,114,0.0,3.0,70,0.00,,,0.16,,2013-05-16 03:45:00,
2013-05-15 21:54:00,59.0,48.0,29.71,ESE,105,2.0,5.0,67,0.00,,,0.16,,2013-05-16 03:54:00,
2013-05-15 22:02:00,59.0,49.0,29.71,ESE,114,0.0,0.0,70,0.00,,,0.16,,2013-05-16 04:02:00,
2013-05-15 22:12:00,59.0,49.0,29.71,ESE,114,0.0,0.0,70,0.00,,,0.16,,2013-05-16 04:12:00,
2013-05-15 22:23:00,59.0,49.0,29.72,WSW,248,0.0,0.0,70,0.00,,,0.16,,2013-05-16 04:23:00,
2013-05-15 22:33:00,59.0,49.0,29.72,West,271,0.0,3.0,70,0.00,,,0.16,,2013-05-16 04:33:00,
2013-05-15 22:42:00,59.0,49.0,29.72,West,271,0.0,3.0,70,0.00,,,0.16,,2013-05-16 04:42:00,
2013-05-15 22:53:00,59.0,49.0,29.72,West,271,0.0,0.0,70,0.00,,,0.16,,2013-05-16 04:53:00,
2013-05-15 23:02:00,59.0,50.0,29.72,West,271,0.0,0.0,73,0.00,,,0.16,,2013-05-16 05:02:00,
2013-05-15 23:12:00,59.0,50.0,29.72,West,271,0.0,0.0,73,0.00,,,0.16,,2013-05-16 05:12:00,
2013-05-15 23:22:00,58.0,50.0,29.70,West,270,0.0,2.0,75,0.00,,,0.16,,2013-05-16 05:22:00,
2013-05-15 23:32:00,58.0,49.0,29.68,SE,128,0.0,2.0,71,0.00,,,0.16,,2013-05-16 05:32:00,
2013-05-15 23:42:00,58.0,49.0,29.68,SE,128,0.0,2.0,71,0.00,,,0.16,,2013-05-16 05:42:00,
2013-05-15 23:52:00,59.0,50.0,29.67,ESE,109,0.0,0.0,71,0.00,,,0.16,,2013-05-16 05:52:00,